Time;durP1;ratioP1;P1;durP2;ratioP2;P2;SDS_P1;SDS_P2;PMS_P1;PMS_P2;Temp;Humidity;BMP_temperature;BMP_pressure;BME280_temperature;BME280_humidity;BME280_pressure;Samples;Min_cycle;Max_cycle;Signal;HPM_P1;HPM_P2
2021/10/27 00:02:50;;;;;;;;;61.00;47.00;;;;;13.84;44.79;99561.19;7656647;22;97216;-65
2021/10/27 00:05:53;;;;;;;;;62.60;50.00;;;;;13.85;44.87;99567.44;7658745;22;96920;-66
2021/10/27 00:08:56;;;;;;;;;62.00;47.60;;;;;13.85;44.77;99570.16;7656489;22;98483;-64
2021/10/27 00:12:00;;;;;;;;;64.60;49.00;;;;;13.84;44.72;99572.03;7632279;22;97109;-65
2021/10/27 00:15:04;;;;;;;;;62.67;49.67;;;;;13.81;45.12;99574.38;7660050;22;97337;-64
2021/10/27 00:18:08;;;;;;;;;63.00;48.00;;;;;13.86;44.65;99574.53;7681124;22;96759;-64
2021/10/27 00:21:12;;;;;;;;;62.00;48.00;;;;;13.86;44.54;99569.09;7658641;22;97393;-66
2021/10/27 00:24:15;;;;;;;;;62.00;48.00;;;;;13.77;45.05;99562.34;7657396;22;96570;-65
2021/10/27 00:27:18;;;;;;;;;57.00;45.00;;;;;13.83;44.87;99564.94;7655787;22;99550;-66
2021/10/27 00:30:22;;;;;;;;;57.40;46.00;;;;;13.84;44.71;99573.91;7656942;22;96948;-64
2021/10/27 00:33:26;;;;;;;;;61.75;46.00;;;;;13.84;44.68;99571.19;7655323;22;99447;-65
2021/10/27 00:36:30;;;;;;;;;56.40;44.00;;;;;13.80;44.81;99567.28;7659054;22;97983;-64
2021/10/27 00:39:35;;;;;;;;;59.60;47.00;;;;;13.76;44.93;99571.50;7659407;22;97233;-66
2021/10/27 00:42:39;;;;;;;;;61.20;47.40;;;;;13.61;45.13;99593.56;7658483;22;98416;-64
2021/10/27 00:45:42;;;;;;;;;61.60;48.00;;;;;13.53;45.14;99585.72;7660901;22;97857;-66
2021/10/27 00:48:47;;;;;;;;;62.00;48.00;;;;;13.46;45.64;99574.13;7660919;22;97181;-66
2021/10/27 00:51:50;;;;;;;;;61.80;48.00;;;;;13.39;45.67;99578.75;7658606;22;97677;-65
2021/10/27 00:54:54;;;;;;;;;66.00;50.00;;;;;13.34;46.04;99575.91;7658040;22;97336;-65
2021/10/27 00:57:58;;;;;;;;;60.60;47.60;;;;;13.36;45.87;99584.63;7632036;22;97276;-66
2021/10/27 01:01:02;;;;;;;;;60.20;48.00;;;;;13.39;45.76;99578.75;7661142;22;97009;-66
2021/10/27 01:04:08;;;;;;;;;61.00;47.00;;;;;13.41;45.55;99579.38;7633174;22;98295;-64
2021/10/27 01:07:12;;;;;;;;;61.00;47.40;;;;;13.45;45.56;99572.47;7658680;22;98104;-65
2021/10/27 01:10:15;;;;;;;;;60.60;47.00;;;;;13.45;45.29;99567.88;7661112;22;97104;-66
2021/10/27 01:13:19;;;;;;;;;61.60;48.00;;;;;13.45;45.35;99575.16;7659882;22;96926;-65
2021/10/27 01:16:22;;;;;;;;;59.00;47.00;;;;;13.51;45.31;99573.44;7659009;22;97050;-66
2021/10/27 01:19:27;;;;;;;;;55.00;44.00;;;;;13.53;45.22;99572.19;7657171;22;97209;-64
2021/10/27 01:22:35;;;;;;;;;56.00;44.20;;;;;13.54;45.30;99572.97;7660186;22;96923;-65
2021/10/27 01:25:38;;;;;;;;;54.80;44.00;;;;;13.59;45.17;99579.38;7657482;22;98638;-65
2021/10/27 01:28:43;;;;;;;;;55.00;43.80;;;;;13.45;45.02;99556.19;7658673;22;97274;-66
2021/10/27 01:31:47;;;;;;;;;51.50;41.50;;;;;13.55;45.04;99570.06;7657960;22;96840;-66
2021/10/27 01:34:50;;;;;;;;;52.00;40.00;;;;;13.54;45.10;99572.97;7659686;22;96747;-65
2021/10/27 01:37:56;;;;;;;;;52.00;42.00;;;;;13.55;44.88;99578.19;7659090;22;97688;-65
2021/10/27 01:41:00;;;;;;;;;55.00;43.80;;;;;13.50;45.11;99574.50;7658571;22;97993;-66
2021/10/27 01:44:03;;;;;;;;;55.00;44.00;;;;;13.43;45.04;99580.00;7657215;22;98282;-65
2021/10/27 01:47:07;;;;;;;;;54.60;43.00;;;;;13.34;45.25;99592.16;7659867;22;96839;-64
2021/10/27 01:50:12;;;;;;;;;54.50;43.00;;;;;13.30;45.16;99597.19;7659085;22;96550;-64
2021/10/27 01:53:16;;;;;;;;;52.60;41.00;;;;;13.32;45.43;99596.97;7660239;22;96848;-65
2021/10/27 01:56:20;;;;;;;;;50.00;41.00;;;;;13.32;45.39;99596.97;7660563;22;97011;-65
2021/10/27 01:59:25;;;;;;;;;52.60;42.60;;;;;13.31;45.14;99596.13;7659719;22;96455;-65
2021/10/27 02:02:28;;;;;;;;;49.20;41.20;;;;;13.32;45.25;99597.81;7659891;22;97018;-64
2021/10/27 02:05:32;;;;;;;;;52.75;40.25;;;;;13.27;45.45;99594.09;7661111;22;97381;-66
2021/10/27 02:08:37;;;;;;;;;52.00;42.60;;;;;13.22;45.66;99602.06;7659159;22;96567;-65
2021/10/27 02:11:41;;;;;;;;;51.40;41.80;;;;;13.19;45.62;99614.16;7656239;22;97873;-66
2021/10/27 02:14:44;;;;;;;;;53.00;42.00;;;;;13.10;46.00;99604.59;7660986;22;96944;-66
2021/10/27 02:17:49;;;;;;;;;53.00;43.00;;;;;13.03;46.00;99604.69;7660309;22;97230;-64
2021/10/27 02:20:52;;;;;;;;;55.80;44.60;;;;;12.92;46.37;99604.53;7659735;22;97016;-66
2021/10/27 02:24:00;;;;;;;;;56.00;43.00;;;;;12.93;46.43;99609.75;7658861;22;96791;-65
2021/10/27 02:27:04;;;;;;;;;57.50;45.00;;;;;12.91;46.50;99606.41;7656918;22;96411;-65
2021/10/27 02:30:08;;;;;;;;;57.00;44.00;;;;;12.93;46.79;99609.75;7659305;22;96942;-64
2021/10/27 02:33:12;;;;;;;;;56.00;44.00;;;;;12.91;46.60;99616.41;7660083;22;96363;-66
2021/10/27 02:36:15;;;;;;;;;53.00;43.00;;;;;12.94;46.82;99611.41;7656220;22;99861;-66
2021/10/27 02:39:20;;;;;;;;;56.00;45.00;;;;;12.96;46.54;99614.72;7659326;22;97080;-65
2021/10/27 02:42:23;;;;;;;;;55.00;44.00;;;;;12.79;46.78;99591.13;7659756;22;96921;-65
2021/10/27 02:45:27;;;;;;;;;55.60;44.00;;;;;12.98;46.81;99628.88;7659146;22;96795;-65
2021/10/27 02:48:30;;;;;;;;;55.40;43.00;;;;;13.04;46.37;99621.75;7683234;22;97055;-65
2021/10/27 02:51:33;;;;;;;;;56.00;44.00;;;;;13.02;46.45;99629.25;7659386;22;97357;-64
2021/10/27 02:54:38;;;;;;;;;57.00;45.00;;;;;12.96;46.59;99625.53;7660319;22;96854;-66
2021/10/27 02:57:42;;;;;;;;;54.75;44.00;;;;;12.95;46.66;99623.88;7656830;22;97141;-65
2021/10/27 03:00:45;;;;;;;;;58.00;45.00;;;;;12.93;46.81;99622.44;7660887;22;97150;-64
2021/10/27 03:03:51;;;;;;;;;55.00;44.00;;;;;12.76;46.73;99595.06;7659920;22;96533;-65
2021/10/27 03:06:54;;;;;;;;;54.60;44.00;;;;;12.90;46.84;99625.59;7683234;22;96840;-65
2021/10/27 03:09:59;;;;;;;;;56.25;44.00;;;;;12.91;46.94;99627.25;7658994;22;97367;-65
2021/10/27 03:13:03;;;;;;;;;56.00;44.00;;;;;12.83;47.20;99628.34;7658500;22;97041;-63
2021/10/27 03:16:06;;;;;;;;;52.60;43.00;;;;;12.83;47.17;99632.91;7659229;22;96541;-64
2021/10/27 03:19:09;;;;;;;;;55.00;43.00;;;;;12.82;47.25;99634.78;7659344;22;96813;-64
2021/10/27 03:22:13;;;;;;;;;53.20;42.80;;;;;12.85;46.98;99637.06;7656969;22;97094;-65
2021/10/27 03:25:17;;;;;;;;;53.00;43.00;;;;;12.86;47.19;99641.44;7659917;22;97372;-65
2021/10/27 03:28:20;;;;;;;;;52.00;42.80;;;;;12.89;47.00;99645.59;7631256;22;96836;-65
2021/10/27 03:31:24;;;;;;;;;50.40;41.20;;;;;12.70;46.92;99624.91;7651269;22;98038;-65
2021/10/27 03:34:28;;;;;;;;;47.60;39.60;;;;;12.85;47.25;99639.75;7656714;22;97116;-65
2021/10/27 03:37:32;;;;;;;;;52.00;42.00;;;;;12.82;47.04;99652.91;7657380;22;97397;-64
2021/10/27 03:40:37;;;;;;;;;52.67;42.00;;;;;12.83;47.10;99647.28;7655936;22;97059;-65
2021/10/27 03:43:40;;;;;;;;;49.60;40.00;;;;;12.85;47.04;99655.19;7658536;22;98028;-63
2021/10/27 03:46:45;;;;;;;;;49.80;40.20;;;;;12.87;46.73;99661.19;7657993;22;96438;-65
2021/10/27 03:49:49;;;;;;;;;50.00;39.00;;;;;12.89;46.91;99662.66;7681703;22;100071;-63
2021/10/27 03:52:52;;;;;;;;;47.00;39.00;;;;;12.88;47.06;99662.88;7658521;22;97473;-65
2021/10/27 03:55:57;;;;;;;;;47.50;39.00;;;;;12.89;46.69;99659.94;7656414;22;96596;-64
2021/10/27 03:59:00;;;;;;;;;47.50;39.00;;;;;12.85;47.09;99660.59;7657757;22;97463;-64
2021/10/27 04:02:04;;;;;;;;;45.60;36.40;;;;;12.82;46.84;99656.44;7630333;22;97427;-64
2021/10/27 04:05:09;;;;;;;;;43.00;36.00;;;;;12.85;46.95;99652.50;7656562;22;97038;-63
2021/10/27 04:08:12;;;;;;;;;45.00;36.00;;;;;12.89;47.09;99657.25;7655232;22;97761;-64
2021/10/27 04:11:16;;;;;;;;;49.20;38.00;;;;;12.93;46.79;99655.75;7658506;22;97369;-64
2021/10/27 04:14:20;;;;;;;;;44.60;36.00;;;;;12.95;46.72;99659.06;7658599;22;96537;-63
2021/10/27 04:17:24;;;;;;;;;47.00;37.00;;;;;12.94;46.62;99654.72;7660689;22;96923;-63
2021/10/27 04:20:28;;;;;;;;;45.00;37.67;;;;;12.93;46.65;99665.75;7656377;22;97274;-63
2021/10/27 04:23:31;;;;;;;;;45.00;36.00;;;;;12.93;47.09;99660.34;7683739;22;96518;-65
2021/10/27 04:26:36;;;;;;;;;47.00;37.00;;;;;12.90;47.25;99663.50;7660542;22;96874;-65
2021/10/27 04:29:39;;;;;;;;;45.33;37.00;;;;;12.91;47.09;99657.84;7682386;22;97778;-64
2021/10/27 04:32:48;;;;;;;;;44.80;36.40;;;;;12.92;47.13;99656.81;7659119;22;96776;-64
2021/10/27 04:35:52;;;;;;;;;44.00;36.00;;;;;13.02;47.19;99673.41;7659365;22;96540;-64
2021/10/27 04:38:55;;;;;;;;;46.60;37.00;;;;;13.06;47.12;99660.25;7656755;22;97630;-64
2021/10/27 04:42:00;;;;;;;;;48.00;38.00;;;;;13.12;47.02;99662.13;7659504;22;96487;-63
2021/10/27 04:45:05;;;;;;;;;45.00;37.00;;;;;13.15;47.00;99669.78;7632517;22;98454;-63
2021/10/27 04:48:08;;;;;;;;;44.80;36.00;;;;;13.21;46.67;99679.75;7659388;22;96543;-63
2021/10/27 04:51:12;;;;;;;;;47.40;38.00;;;;;13.22;46.78;99673.28;7658416;22;96907;-63
2021/10/27 04:54:15;;;;;;;;;47.80;39.00;;;;;13.27;46.59;99672.63;7658284;22;96676;-64
2021/10/27 04:57:20;;;;;;;;;46.60;36.40;;;;;13.22;46.85;99680.56;7657624;22;97166;-64
2021/10/27 05:00:23;;;;;;;;;46.00;36.60;;;;;13.23;46.70;99693.91;7657552;22;96794;-66
2021/10/27 05:03:26;;;;;;;;;43.00;36.00;;;;;13.25;46.85;99694.50;7654009;22;97388;-64
2021/10/27 05:06:30;;;;;;;;;42.00;35.00;;;;;13.32;46.68;99694.47;7654715;22;97164;-65
2021/10/27 05:09:33;;;;;;;;;45.60;36.20;;;;;13.40;46.61;99696.88;7657639;22;97253;-65
2021/10/27 05:12:38;;;;;;;;;44.00;37.00;;;;;13.45;46.42;99689.75;7658151;22;97014;-65
2021/10/27 05:15:41;;;;;;;;;41.80;35.40;;;;;13.53;46.39;99690.56;7659593;22;96992;-65
2021/10/27 05:18:45;;;;;;;;;39.25;33.00;;;;;13.62;45.96;99692.75;7655849;22;98930;-65
2021/10/27 05:21:48;;;;;;;;;39.00;32.00;;;;;13.67;46.08;99703.78;7658865;22;97627;-66
2021/10/27 05:24:51;;;;;;;;;38.20;33.00;;;;;13.77;45.85;99711.41;7665051;22;96539;-67
2021/10/27 05:27:56;;;;;;;;;38.00;33.00;;;;;13.80;45.69;99706.34;7659812;22;97132;-65
2021/10/27 05:30:59;;;;;;;;;37.40;33.00;;;;;13.81;45.49;99710.72;7661032;22;97078;-67
2021/10/27 05:34:03;;;;;;;;;38.00;33.00;;;;;13.80;45.25;99713.66;7660628;22;97316;-66
2021/10/27 05:37:06;;;;;;;;;37.00;32.50;;;;;13.83;45.40;99724.88;7661033;22;97306;-65
2021/10/27 05:40:11;;;;;;;;;37.40;33.00;;;;;13.89;45.22;99721.28;7663315;22;96455;-67
2021/10/27 05:43:15;;;;;;;;;38.00;33.00;;;;;13.96;45.83;99723.94;7661284;22;97124;-65
2021/10/27 05:46:20;;;;;;;;;40.25;33.00;;;;;14.09;45.26;99728.38;7658995;22;97089;-67
2021/10/27 05:49:26;;;;;;;;;35.33;30.00;;;;;14.24;44.84;99732.41;7659278;22;96889;-65
2021/10/27 05:55:55;;;;;;;;;34.50;30.00;;;;;14.57;43.98;99737.47;7657012;22;97038;-64
2021/10/27 05:59:00;;;;;;;;;34.40;30.00;;;;;14.67;43.82;99729.63;7660399;22;96913;-65
2021/10/27 06:02:04;;;;;;;;;34.00;28.20;;;;;14.70;43.91;99739.22;7658782;22;97432;-64
2021/10/27 06:05:08;;;;;;;;;33.00;30.00;;;;;14.70;43.50;99740.06;7658291;22;96498;-61
2021/10/27 06:08:13;;;;;;;;;38.40;32.00;;;;;14.68;43.41;99747.59;7656118;22;97181;-64
2021/10/27 06:11:16;;;;;;;;;36.60;32.00;;;;;14.65;43.33;99744.50;7659185;22;96707;-63
2021/10/27 06:14:22;;;;;;;;;37.20;31.20;;;;;14.62;43.69;99747.66;7659479;22;96581;-64
2021/10/27 06:17:25;;;;;;;;;33.00;30.00;;;;;14.61;43.67;99738.69;7657232;22;99602;-64
2021/10/27 06:20:29;;;;;;;;;34.50;29.25;;;;;14.55;43.60;99750.47;7658036;22;98736;-64
2021/10/27 06:23:33;;;;;;;;;35.40;31.00;;;;;14.61;43.72;99752.25;7657356;22;98644;-63
2021/10/27 06:26:36;;;;;;;;;29.00;25.25;;;;;14.66;43.64;99746.97;7658353;22;97428;-64
2021/10/27 06:29:44;;;;;;;;;29.00;26.60;;;;;15.17;43.06;99740.25;7657462;22;97143;-64
2021/10/27 06:32:58;;;;;;;;;28.00;27.50;;;;;16.39;40.70;99750.38;7661547;22;96357;-65
2021/10/27 06:36:07;;;;;;;;;32.60;30.00;;;;;16.37;40.42;99744.34;7656425;22;98537;-66
2021/10/27 06:45:54;;;;;;;;;29.50;27.75;;;;;16.29;40.41;99749.31;7658874;22;98429;-66
2021/10/27 06:46:33;;;;;;;;;30.40;28.00;;;;;16.99;39.01;99744.59;7659049;22;96928;-64
2021/10/27 06:49:36;;;;;;;;;30.00;26.25;;;;;17.62;38.27;99743.59;7660349;22;96383;-65
2021/10/27 06:52:40;;;;;;;;;26.75;25.25;;;;;19.06;35.76;99751.72;7659995;22;96484;-65
2021/10/27 06:55:44;;;;;;;;;29.60;26.40;;;;;20.27;33.69;99750.91;7660933;22;96448;-65
2021/10/27 06:58:51;;;;;;;;;27.75;24.75;;;;;21.35;31.90;99756.66;7659448;22;97383;-67
2021/10/27 07:05:45;;;;;;;;;31.40;29.40;;;;;23.42;28.59;99747.22;7589558;22;97671;-66
2021/10/27 07:15:33;;;;;;;;;27.00;26.00;;;;;26.46;24.60;99763.69;7661703;22;97178;-63
2021/10/27 07:18:37;;;;;;;;;32.00;29.00;;;;;27.30;23.43;99761.44;7660191;22;96414;-64
2021/10/27 07:21:41;;;;;;;;;28.00;26.00;;;;;27.96;22.69;99759.88;7659396;22;97012;-66
2021/10/27 07:24:45;;;;;;;;;26.60;24.00;;;;;28.51;22.01;99765.97;7660107;22;97394;-66
2021/10/27 07:27:50;;;;;;;;;29.75;26.50;;;;;29.28;21.55;99771.81;7659095;22;96629;-63
2021/10/27 07:30:53;;;;;;;;;25.00;24.00;;;;;30.01;20.10;99764.53;7657183;22;96851;-65
2021/10/27 07:34:03;;;;;;;;;26.40;24.60;;;;;30.66;19.64;99759.81;7660024;22;97518;-64
2021/10/27 07:40:36;;;;;;;;;24.00;23.00;;;;;31.73;18.37;99760.19;7658476;22;97308;-64
2021/10/27 07:43:40;;;;;;;;;27.00;27.00;;;;;32.23;17.88;99768.44;7683439;22;97500;-66
2021/10/27 07:46:44;;;;;;;;;30.00;27.60;;;;;32.47;17.63;99767.69;7658670;22;99506;-64
2021/10/27 07:49:49;;;;;;;;;27.00;25.00;;;;;32.98;17.39;99767.09;7660702;22;97414;-66
2021/10/27 07:52:53;;;;;;;;;26.60;25.60;;;;;33.24;17.17;99757.53;7658482;22;98582;-67
2021/10/27 07:55:56;;;;;;;;;24.00;23.60;;;;;33.63;16.74;99770.72;7660982;22;97457;-65
2021/10/27 07:59:01;;;;;;;;;24.25;23.00;;;;;33.72;16.58;99756.66;7658582;22;98437;-66
2021/10/27 08:02:05;;;;;;;;;22.00;21.00;;;;;33.92;16.61;99769.59;7660726;22;97419;-63
2021/10/27 08:05:10;;;;;;;;;26.40;23.00;;;;;33.95;16.36;99766.13;7661089;22;96433;-63
2021/10/27 08:08:15;;;;;;;;;21.00;20.00;;;;;34.27;16.28;99759.44;7660065;22;97386;-66
2021/10/27 08:11:19;;;;;;;;;27.00;25.00;;;;;34.48;16.16;99764.00;7659969;22;96527;-67
2021/10/27 08:14:23;;;;;;;;;27.80;25.00;;;;;34.64;16.01;99762.03;7662212;22;97209;-66
2021/10/27 08:17:36;;;;;;;;;28.60;26.40;;;;;34.86;15.62;99760.59;7661560;22;97428;-65
2021/10/27 08:20:41;;;;;;;;;25.00;23.00;;;;;35.35;15.45;99766.59;7685134;22;97948;-65
2021/10/27 08:23:46;;;;;;;;;30.00;25.60;;;;;35.67;15.41;99765.38;7658797;22;98927;-65
2021/10/27 08:26:53;;;;;;;;;28.80;27.00;;;;;35.94;15.06;99758.72;7658953;22;97309;-67
2021/10/27 08:30:02;;;;;;;;;26.67;25.00;;;;;36.20;14.57;99762.84;7660583;22;97163;-66
2021/10/27 08:33:07;;;;;;;;;25.00;23.00;;;;;36.31;14.98;99766.69;7660783;22;97437;-66
2021/10/27 08:36:12;;;;;;;;;23.40;22.40;;;;;36.43;14.80;99767.31;7660007;22;97370;-65
2021/10/27 08:39:16;;;;;;;;;29.80;26.00;;;;;36.51;15.09;99768.25;7658484;22;98368;-65
2021/10/27 08:42:22;;;;;;;;;30.40;27.00;;;;;36.45;14.68;99767.78;7658274;22;96555;-64
2021/10/27 08:45:27;;;;;;;;;29.67;28.00;;;;;36.64;15.04;99764.13;7662958;22;97481;-67
2021/10/27 08:48:35;;;;;;;;;27.80;26.80;;;;;36.57;14.90;99760.31;7659697;22;96878;-65
2021/10/27 08:51:39;;;;;;;;;27.40;26.00;;;;;36.11;15.44;99762.25;7661753;22;96591;-64
2021/10/27 08:54:43;;;;;;;;;31.50;29.50;;;;;36.21;15.37;99764.50;7663276;22;96468;-66
2021/10/27 08:57:47;;;;;;;;;28.50;27.00;;;;;36.19;14.95;99758.41;7658903;22;97452;-64
2021/10/27 09:00:59;;;;;;;;;28.20;26.00;;;;;36.16;15.13;99756.38;7661747;22;98026;-64
2021/10/27 09:04:21;;;;;;;;;28.25;26.25;;;;;36.00;15.45;99757.25;7662378;22;96547;-64
2021/10/27 09:07:31;;;;;;;;;27.25;25.25;;;;;35.94;15.22;99757.91;7660038;22;97980;-66
2021/10/27 09:35:03;;;;;;;;;21.40;20.00;;;;;37.06;14.61;99749.94;7657884;22;97928;-65
2021/10/27 10:05:21;;;;;;;;;17.20;16.80;;;;;37.41;14.64;99741.25;7545965;23;96574;-64
2021/10/27 10:08:25;;;;;;;;;20.00;18.50;;;;;37.58;14.75;99732.25;7543661;23;97602;-64
2021/10/27 10:11:28;;;;;;;;;15.00;15.00;;;;;37.31;14.49;99731.47;7545196;23;97364;-64
2021/10/27 10:14:35;;;;;;;;;16.75;15.75;;;;;37.20;14.67;99724.06;7520351;23;97494;-64
2021/10/27 10:17:40;;;;;;;;;19.00;16.40;;;;;36.98;14.85;99733.34;7544978;23;97391;-63
2021/10/27 10:20:43;;;;;;;;;18.00;16.00;;;;;36.96;14.84;99730.91;7564994;22;96569;-64
2021/10/27 10:23:46;;;;;;;;;18.00;17.00;;;;;36.90;15.11;99721.97;7659930;22;96874;-62
2021/10/27 10:26:51;;;;;;;;;16.25;16.00;;;;;37.06;14.77;99724.63;7659431;22;96520;-64
2021/10/27 10:30:00;;;;;;;;;15.25;15.00;;;;;37.19;14.61;99725.28;7659566;22;96502;-64
2021/10/27 10:33:05;;;;;;;;;15.00;15.00;;;;;37.00;14.94;99717.72;7658937;22;97148;-62
2021/10/27 10:36:13;;;;;;;;;13.00;12.25;;;;;36.67;14.75;99724.03;7659421;22;96425;-64
2021/10/27 10:39:42;;;;;;;;;15.00;13.75;;;;;36.55;15.50;99724.19;7659628;22;97302;-64
2021/10/27 10:42:55;;;;;;;;;16.00;15.75;;;;;36.30;15.58;99718.13;7683872;22;97622;-65
2021/10/27 10:46:05;;;;;;;;;17.00;16.00;;;;;36.33;15.59;99716.56;7656144;22;97686;-64
2021/10/27 10:57:05;;;;;;;;;15.00;14.00;;;;;36.12;15.47;99714.13;7658734;22;96405;-64
2021/10/27 11:24:38;;;;;;;;;10.75;10.75;;;;;34.90;15.66;99681.03;7657112;22;96626;-65
2021/10/27 11:38:19;;;;;;;;;11.20;10.80;;;;;33.36;17.26;99671.69;7658002;22;97070;-67
2021/10/27 11:41:35;;;;;;;;;11.00;11.00;;;;;33.30;17.64;99664.72;7658763;22;96527;-65
2021/10/27 11:44:44;;;;;;;;;12.40;11.40;;;;;33.10;17.97;99658.09;7661597;22;97980;-66
2021/10/27 11:47:52;;;;;;;;;10.00;10.00;;;;;32.80;17.84;99659.53;7659129;22;97096;-66
2021/10/27 11:50:55;;;;;;;;;11.00;10.80;;;;;32.66;18.32;99654.31;7658317;22;97606;-65
2021/10/27 11:54:00;;;;;;;;;10.00;10.00;;;;;32.65;18.21;99652.69;7657251;22;96521;-65
2021/10/27 15:55:30;;;;;;;;;12.25;11.00;;;;;19.93;35.79;99633.81;7690525;22;98531;-66
2021/10/27 15:58:34;;;;;;;;;13.40;12.00;;;;;19.79;36.02;99642.44;7671851;22;98557;-67
2021/10/27 16:01:37;;;;;;;;;12.00;11.00;;;;;19.66;36.38;99648.38;7693929;22;97377;-67
2021/10/27 16:04:41;;;;;;;;;14.40;13.00;;;;;19.58;36.79;99639.84;7701008;22;96566;-68
2021/10/27 16:07:46;;;;;;;;;13.40;12.00;;;;;19.40;36.90;99638.31;7695019;22;97306;-64
2021/10/27 16:10:51;;;;;;;;;13.00;13.00;;;;;19.28;37.28;99645.84;7672310;22;99691;-64
2021/10/27 16:13:54;;;;;;;;;13.00;11.00;;;;;19.17;37.42;99644.94;7678730;22;97271;-65
2021/10/27 16:16:58;;;;;;;;;12.00;11.00;;;;;19.06;37.75;99647.84;7669620;22;97222;-65
2021/10/27 16:20:02;;;;;;;;;15.00;13.50;;;;;18.96;38.08;99645.84;7674416;22;97616;-64
2021/10/27 16:23:08;;;;;;;;;16.60;14.60;;;;;18.78;38.60;99638.81;7673490;22;98482;-63
2021/10/27 16:26:13;;;;;;;;;16.40;15.00;;;;;18.80;38.20;99663.16;7675055;22;96358;-67
2021/10/27 16:29:16;;;;;;;;;16.00;14.00;;;;;18.79;38.35;99661.50;7698649;22;97300;-66
2021/10/27 16:32:19;;;;;;;;;16.00;14.33;;;;;18.77;37.99;99661.72;7672835;22;96590;-65
2021/10/27 16:35:23;;;;;;;;;16.00;15.00;;;;;18.77;38.05;99664.47;7698779;22;97271;-65
2021/10/27 16:38:27;;;;;;;;;16.20;15.80;;;;;18.76;38.33;99662.00;7699186;22;96848;-64
2021/10/27 16:41:32;;;;;;;;;15.00;15.00;;;;;18.72;38.37;99664.41;7693393;22;96692;-65
2021/10/27 16:44:35;;;;;;;;;15.75;14.00;;;;;18.63;38.40;99663.22;7698977;22;96839;-66
2021/10/27 16:47:38;;;;;;;;;16.00;14.50;;;;;18.59;38.53;99668.38;7698426;22;96735;-64
2021/10/27 16:50:42;;;;;;;;;16.50;16.00;;;;;18.55;38.40;99667.22;7674328;22;97850;-64
2021/10/27 16:53:45;;;;;;;;;19.80;17.60;;;;;18.51;38.37;99671.53;7670697;22;96994;-66
2021/10/27 16:56:50;;;;;;;;;21.20;19.00;;;;;18.47;38.32;99669.56;7696111;22;96769;-66
2021/10/27 16:59:54;;;;;;;;;19.00;17.00;;;;;18.39;38.69;99672.72;7700638;22;97361;-64
2021/10/27 17:02:58;;;;;;;;;20.00;18.00;;;;;18.22;38.76;99659.13;7702928;22;96455;-66
2021/10/27 17:06:02;;;;;;;;;20.00;18.00;;;;;18.32;38.62;99675.66;7698987;22;96979;-64
2021/10/27 17:09:05;;;;;;;;;23.80;20.80;;;;;18.32;38.78;99677.56;7672088;22;98369;-66
2021/10/27 17:12:11;;;;;;;;;23.80;21.00;;;;;18.26;38.94;99673.94;7702267;22;96901;-64
2021/10/27 17:15:15;;;;;;;;;25.60;22.60;;;;;18.11;39.14;99662.78;7672773;22;98360;-67
2021/10/27 17:18:18;;;;;;;;;24.50;21.00;;;;;18.23;39.13;99681.78;7671334;22;96682;-66
2021/10/27 17:21:22;;;;;;;;;26.00;21.80;;;;;18.22;39.31;99691.06;7700949;22;97039;-66
2021/10/27 17:24:27;;;;;;;;;28.50;25.50;;;;;18.22;39.07;99688.31;7675040;22;98472;-66
2021/10/27 17:27:48;;;;;;;;;29.00;24.40;;;;;18.22;39.06;99688.31;7699756;22;96974;-64
2021/10/27 17:30:52;;;;;;;;;31.00;29.00;;;;;18.17;39.12;99691.81;7670865;22;98954;-65
2021/10/27 17:33:57;;;;;;;;;27.00;25.50;;;;;18.09;39.59;99684.03;7701551;22;97288;-66
2021/10/27 17:37:00;;;;;;;;;29.00;26.50;;;;;18.00;39.73;99674.63;7703187;22;96410;-65
2021/10/27 17:40:11;;;;;;;;;29.80;26.80;;;;;17.87;40.29;99675.81;7699828;22;96961;-66
2021/10/27 17:43:16;;;;;;;;;28.00;26.00;;;;;17.86;40.05;99681.53;7700943;22;97201;-65
2021/10/27 17:46:25;;;;;;;;;31.60;27.00;;;;;17.81;40.43;99685.00;7699766;22;97040;-64
2021/10/27 17:49:36;;;;;;;;;32.50;26.50;;;;;17.80;40.35;99693.41;7701583;22;97262;-65
2021/10/27 17:52:48;;;;;;;;;30.60;28.00;;;;;17.77;40.25;99689.31;7676454;22;97943;-66
2021/10/27 17:59:15;;;;;;;;;33.80;29.80;;;;;17.62;40.77;99684.44;7673515;22;97237;-64
2021/10/27 18:02:19;;;;;;;;;32.00;28.00;;;;;17.59;40.84;99689.56;7673154;22;97448;-65
2021/10/27 18:05:23;;;;;;;;;31.40;30.00;;;;;17.52;41.01;99681.50;7701735;22;96452;-65
2021/10/27 18:08:27;;;;;;;;;29.50;27.50;;;;;17.52;41.03;99676.06;7701042;22;96582;-64
2021/10/27 18:11:33;;;;;;;;;29.60;26.40;;;;;17.44;41.37;99681.09;7701093;22;96355;-66
2021/10/27 18:14:37;;;;;;;;;33.40;30.00;;;;;17.42;41.39;99670.44;7673729;22;98355;-65
2021/10/27 18:17:41;;;;;;;;;31.00;28.00;;;;;17.39;41.48;99670.09;7672544;22;96918;-66
2021/10/27 18:20:46;;;;;;;;;29.40;26.80;;;;;17.36;41.68;99678.75;7648132;22;96992;-66
2021/10/27 18:24:08;;;;;;;;;33.20;30.00;;;;;17.35;41.71;99679.84;7700459;22;96527;-64
2021/10/27 18:27:24;;;;;;;;;38.60;31.40;;;;;17.30;41.88;99684.13;7673196;22;97837;-66
2021/10/27 18:37:19;;;;;;;;;31.20;27.40;;;;;17.24;42.07;99687.03;7648405;22;97074;-64
2021/10/27 18:40:29;;;;;;;;;35.60;30.60;;;;;17.19;42.13;99695.94;7699210;22;96814;-66
2021/10/27 18:43:32;;;;;;;;;31.00;30.00;;;;;17.08;42.65;99687.81;7699459;22;97377;-64
2021/10/27 18:46:38;;;;;;;;;31.00;29.00;;;;;17.01;42.51;99678.94;7700761;22;96549;-64
2021/10/27 18:49:42;;;;;;;;;32.40;30.00;;;;;17.05;42.47;99691.84;7646416;22;96808;-66
2021/10/27 18:52:53;;;;;;;;;35.00;30.80;;;;;17.04;42.61;99701.09;7702729;22;96558;-64
2021/10/27 18:59:21;;;;;;;;;39.00;33.00;;;;;16.95;42.99;99702.56;7696778;22;97919;-66
2021/10/27 19:02:30;;;;;;;;;43.80;36.00;;;;;16.95;42.93;99694.41;7700913;22;97121;-64
2021/10/27 19:12:20;;;;;;;;;42.40;32.40;;;;;16.92;42.83;99711.19;7700080;22;97241;-65
2021/10/27 19:15:27;;;;;;;;;36.60;31.20;;;;;16.85;43.41;99707.81;7674673;22;97737;-66
2021/10/27 19:18:33;;;;;;;;;42.60;35.00;;;;;16.83;43.41;99713.50;7671808;22;97837;-65
2021/10/27 19:21:36;;;;;;;;;34.40;31.00;;;;;16.81;43.88;99717.53;7646618;22;97223;-64
2021/10/27 19:24:45;;;;;;;;;38.60;32.00;;;;;16.85;43.58;99713.25;7697818;22;96985;-65
2021/10/27 19:27:54;;;;;;;;;34.50;30.50;;;;;16.85;43.67;99719.53;7670734;22;97776;-66
2021/10/27 19:31:11;;;;;;;;;38.80;33.40;;;;;16.90;43.48;99724.25;7696794;22;96548;-64
2021/10/27 19:34:36;;;;;;;;;39.00;33.00;;;;;16.87;43.69;99725.56;7670917;22;99367;-65
2021/10/27 20:08:04;;;;;;;;;42.00;34.00;;;;;16.66;43.89;99731.69;7697558;22;97484;-65
2021/10/27 20:51:37;;;;;;;;;43.00;35.00;;;;;15.44;45.33;99736.06;7644039;22;97689;-64
2021/10/27 20:54:41;;;;;;;;;41.40;36.00;;;;;15.41;45.54;99733.84;7668629;22;97396;-65
2021/10/27 20:57:54;;;;;;;;;47.20;36.20;;;;;15.41;45.98;99738.44;7697816;22;97455;-66
2021/10/27 21:01:03;;;;;;;;;44.60;36.00;;;;;15.44;45.61;99746.94;7697299;22;96861;-66
2021/10/27 21:14:27;;;;;;;;;42.25;34.75;;;;;15.30;45.24;99748.19;7670388;22;96714;-66
2021/10/27 21:17:30;;;;;;;;;46.67;36.00;;;;;15.28;45.18;99744.06;7697712;22;97027;-63
2021/10/27 21:20:34;;;;;;;;;46.00;35.80;;;;;15.17;45.57;99743.81;7670776;22;99722;-64
2021/10/27 21:23:37;;;;;;;;;44.00;36.00;;;;;15.16;45.42;99753.00;7698095;22;97488;-63
2021/10/27 21:26:42;;;;;;;;;47.60;38.00;;;;;15.12;45.76;99746.38;7670758;22;96954;-66
2021/10/27 21:29:53;;;;;;;;;45.00;35.20;;;;;15.12;46.04;99743.66;7669026;22;98571;-66
2021/10/27 21:33:22;;;;;;;;;45.00;35.40;;;;;15.14;46.22;99744.28;7696416;22;96912;-64
2021/10/27 21:43:08;;;;;;;;;42.40;35.40;;;;;14.88;45.87;99744.63;7695622;22;97384;-66
2021/10/27 21:46:12;;;;;;;;;45.00;34.75;;;;;14.76;45.92;99740.19;7697705;22;96500;-63
2021/10/27 21:49:16;;;;;;;;;45.00;35.25;;;;;14.70;46.23;99737.34;7698308;22;96426;-65
2021/10/27 21:52:19;;;;;;;;;45.00;36.00;;;;;14.72;46.03;99745.22;7699020;22;96886;-66
2021/10/27 21:55:29;;;;;;;;;45.00;36.40;;;;;14.73;46.11;99739.59;7695851;22;97007;-63